Time;durP1;ratioP1;P1;durP2;ratioP2;P2;SDS_P1;SDS_P2;PMS_P1;PMS_P2;Temp;Humidity;BMP_temperature;BMP_pressure;BME280_temperature;BME280_humidity;BME280_pressure;Samples;Min_cycle;Max_cycle;Signal;HPM_P1;HPM_P2
2021/04/02 00:01:34;;;;;;;25.57;23.67;;;;;;;;;;5073739;28;20445;-74
2021/04/02 00:04:01;;;;;;;25.30;23.50;;;;;;;;;;5073673;28;20814;-74
2021/04/02 00:06:28;;;;;;;25.87;24.17;;;;;;;;;;5072378;28;20446;-74
2021/04/02 00:08:56;;;;;;;25.13;23.27;;;;;;;;;;5073692;28;20445;-74
2021/04/02 00:11:23;;;;;;;25.73;23.93;;;;;;;;;;5072306;28;20924;-74
2021/04/02 00:13:50;;;;;;;26.33;24.40;;;;;;;;;;5073207;28;20802;-73
2021/04/02 00:16:19;;;;;;;27.20;25.07;;;;;;;;;;5073440;28;20456;-74
2021/04/02 00:18:46;;;;;;;26.87;24.93;;;;;;;;;;5073265;28;20408;-74
2021/04/02 00:21:14;;;;;;;26.50;24.43;;;;;;;;;;5072396;28;20448;-74
2021/04/02 00:23:41;;;;;;;26.87;24.67;;;;;;;;;;5072305;28;20970;-74
2021/04/02 00:26:10;;;;;;;26.53;24.53;;;;;;;;;;5073366;28;20412;-74
2021/04/02 00:28:37;;;;;;;26.02;24.13;;;;;;;;;;5073129;28;20916;-74
2021/04/02 00:31:03;;;;;;;27.17;25.17;;;;;;;;;;5071927;28;20230;-74
2021/04/02 00:33:31;;;;;;;27.63;25.23;;;;;;;;;;5073389;28;20528;-74
2021/04/02 00:35:58;;;;;;;26.50;24.60;;;;;;;;;;5074632;28;20537;-74
2021/04/02 00:38:26;;;;;;;26.30;24.40;;;;;;;;;;5077143;28;20482;-74
2021/04/02 00:40:53;;;;;;;27.33;25.10;;;;;;;;;;5076002;28;20788;-74
2021/04/02 00:43:22;;;;;;;73.85;53.55;;;;;;;;;;5076798;28;20422;-74
2021/04/02 00:45:49;;;;;;;25.90;24.00;;;;;;;;;;5076688;28;20226;-74
2021/04/02 00:48:16;;;;;;;26.70;24.47;;;;;;;;;;5076714;28;20453;-74
2021/04/02 00:50:45;;;;;;;25.60;24.00;;;;;;;;;;5076701;28;20441;-74
2021/04/02 00:53:12;;;;;;;26.30;24.40;;;;;;;;;;5075388;28;20476;-74
2021/04/02 00:55:40;;;;;;;27.50;24.93;;;;;;;;;;5076842;28;20249;-74
2021/04/02 00:58:08;;;;;;;27.37;25.33;;;;;;;;;;5076693;28;20919;-74
2021/04/02 01:00:36;;;;;;;27.13;25.17;;;;;;;;;;5076599;28;20963;-74
2021/04/02 01:03:04;;;;;;;27.03;25.20;;;;;;;;;;5075420;28;20444;-75
2021/04/02 01:05:33;;;;;;;28.00;25.90;;;;;;;;;;5076412;28;20436;-74
2021/04/02 01:08:01;;;;;;;27.50;25.10;;;;;;;;;;5076659;28;20437;-74
2021/04/02 01:10:29;;;;;;;25.90;24.07;;;;;;;;;;5076334;28;20885;-74
2021/04/02 01:12:58;;;;;;;29.23;26.63;;;;;;;;;;5076911;28;20404;-73
2021/04/02 01:15:26;;;;;;;26.60;24.73;;;;;;;;;;5076120;28;20470;-73
2021/04/02 01:17:54;;;;;;;25.07;23.50;;;;;;;;;;5076449;28;20412;-74
2021/04/02 01:20:23;;;;;;;26.10;24.20;;;;;;;;;;5074902;28;20430;-74
2021/04/02 01:22:50;;;;;;;25.88;23.83;;;;;;;;;;5076099;28;20942;-74
2021/04/02 01:25:20;;;;;;;26.70;24.13;;;;;;;;;;5076404;28;20205;-73
2021/04/02 01:28:00;;;;;;;25.67;23.90;;;;;;;;;;5075748;28;20470;-74
2021/04/02 01:30:34;;;;;;;26.70;24.50;;;;;;;;;;5076797;28;20453;-74
2021/04/02 01:33:03;;;;;;;28.17;25.73;;;;;;;;;;5076064;28;21108;-74
2021/04/02 01:35:31;;;;;;;26.87;24.60;;;;;;;;;;5074891;28;20541;-73
2021/04/02 01:37:59;;;;;;;26.83;25.00;;;;;;;;;;5076083;28;20412;-73
2021/04/02 01:40:27;;;;;;;28.33;25.63;;;;;;;;;;5075660;28;20465;-74
2021/04/02 01:42:56;;;;;;;27.43;25.13;;;;;;;;;;5076068;28;20443;-74
2021/04/02 01:45:23;;;;;;;27.97;25.97;;;;;;;;;;5074780;28;20822;-74
2021/04/02 01:47:52;;;;;;;27.60;25.30;;;;;;;;;;5074448;28;20407;-74
2021/04/02 01:50:20;;;;;;;29.10;26.63;;;;;;;;;;5075840;28;20764;-74
2021/04/02 01:52:47;;;;;;;27.13;25.00;;;;;;;;;;5074205;28;20433;-74
2021/04/02 01:55:15;;;;;;;28.53;25.73;;;;;;;;;;5075725;28;20459;-74
2021/04/02 01:57:43;;;;;;;27.47;25.10;;;;;;;;;;5075226;28;20476;-74
2021/04/02 02:00:11;;;;;;;31.10;28.30;;;;;;;;;;5075708;28;20912;-74
2021/04/02 02:02:38;;;;;;;29.77;27.27;;;;;;;;;;5075349;28;20420;-74
2021/04/02 02:05:08;;;;;;;29.67;26.97;;;;;;;;;;5075647;28;20416;-74
2021/04/02 02:07:36;;;;;;;29.20;26.60;;;;;;;;;;5075641;28;20409;-74
2021/04/02 02:10:04;;;;;;;28.43;26.13;;;;;;;;;;5075532;28;20756;-74
2021/04/02 02:12:32;;;;;;;28.57;26.37;;;;;;;;;;5075472;28;20438;-74
2021/04/02 02:15:00;;;;;;;29.87;27.37;;;;;;;;;;5075449;28;20456;-74
2021/04/02 02:17:27;;;;;;;29.20;26.73;;;;;;;;;;5074197;28;20443;-74
2021/04/02 02:19:55;;;;;;;28.17;26.13;;;;;;;;;;5075310;28;20412;-74
2021/04/02 02:22:24;;;;;;;28.70;26.47;;;;;;;;;;5075223;28;20415;-74
2021/04/02 02:24:51;;;;;;;30.63;28.13;;;;;;;;;;5073654;28;20437;-74
2021/04/02 02:27:18;;;;;;;29.73;27.03;;;;;;;;;;5074762;28;20878;-74
2021/04/02 02:29:45;;;;;;;27.67;25.77;;;;;;;;;;5074776;28;20433;-74
2021/04/02 02:32:12;;;;;;;29.10;26.73;;;;;;;;;;5074778;28;20901;-74
2021/04/02 02:34:39;;;;;;;27.27;24.70;;;;;;;;;;5074969;28;20817;-74
2021/04/02 02:37:08;;;;;;;28.10;26.07;;;;;;;;;;5074846;28;20879;-74
2021/04/02 02:39:36;;;;;;;29.10;26.90;;;;;;;;;;5074823;28;20466;-74
2021/04/02 02:42:04;;;;;;;30.67;28.07;;;;;;;;;;5074890;28;20898;-74
2021/04/02 02:44:31;;;;;;;27.33;25.40;;;;;;;;;;5074611;28;20421;-74
2021/04/02 02:46:58;;;;;;;27.35;25.45;;;;;;;;;;5074767;28;20195;-74
2021/04/02 02:49:26;;;;;;;27.23;25.07;;;;;;;;;;5074394;28;20187;-74
2021/04/02 02:51:55;;;;;;;28.43;26.00;;;;;;;;;;5074707;28;20408;-74
2021/04/02 02:54:24;;;;;;;29.40;27.00;;;;;;;;;;5073957;28;20493;-74
2021/04/02 02:56:53;;;;;;;29.80;27.70;;;;;;;;;;5074062;28;20484;-74
2021/04/02 02:59:21;;;;;;;30.43;28.00;;;;;;;;;;5073850;28;20439;-74
2021/04/02 03:01:49;;;;;;;31.10;28.30;;;;;;;;;;5074556;28;20442;-74
2021/04/02 03:04:17;;;;;;;28.97;26.90;;;;;;;;;;5074439;28;20437;-74
2021/04/02 03:06:45;;;;;;;28.80;26.80;;;;;;;;;;5056686;28;20449;-74
2021/04/02 03:09:13;;;;;;;27.33;25.50;;;;;;;;;;5074128;28;20927;-74
2021/04/02 03:11:42;;;;;;;28.80;26.00;;;;;;;;;;5074070;28;20203;-74
2021/04/02 03:14:11;;;;;;;29.63;27.27;;;;;;;;;;5074274;28;20408;-74
2021/04/02 03:16:42;;;;;;;26.98;25.25;;;;;;;;;;5074222;28;20444;-74
2021/04/02 03:19:09;;;;;;;28.33;26.33;;;;;;;;;;5073394;28;20187;-74
2021/04/02 03:21:37;;;;;;;27.23;25.43;;;;;;;;;;5072742;28;20977;-74
2021/04/02 03:24:05;;;;;;;29.13;26.10;;;;;;;;;;5073859;28;20904;-74
2021/04/02 03:26:33;;;;;;;29.20;27.02;;;;;;;;;;5073999;28;20452;-74
2021/04/02 03:29:00;;;;;;;29.50;27.10;;;;;;;;;;5073822;28;20198;-74
2021/04/02 03:31:28;;;;;;;28.95;26.48;;;;;;;;;;5074039;28;20770;-74
2021/04/02 03:33:57;;;;;;;28.70;26.70;;;;;;;;;;5073689;28;20192;-74
2021/04/02 03:36:27;;;;;;;29.07;26.70;;;;;;;;;;5073495;28;20425;-74
2021/04/02 03:38:54;;;;;;;28.97;26.47;;;;;;;;;;5073617;28;20448;-74
2021/04/02 03:41:23;;;;;;;29.30;27.10;;;;;;;;;;5073763;28;20416;-75
2021/04/02 03:43:51;;;;;;;28.90;26.63;;;;;;;;;;5073987;28;20442;-74
2021/04/02 03:46:20;;;;;;;27.48;25.45;;;;;;;;;;5073889;28;20400;-74
2021/04/02 03:48:49;;;;;;;28.35;26.45;;;;;;;;;;5073752;28;20244;-74
2021/04/02 03:51:18;;;;;;;27.30;25.27;;;;;;;;;;5073596;28;20196;-74
2021/04/02 03:53:47;;;;;;;28.08;26.10;;;;;;;;;;5073354;28;20687;-74
2021/04/02 03:56:17;;;;;;;29.10;26.38;;;;;;;;;;5073013;28;20256;-74
2021/04/02 03:58:46;;;;;;;27.13;25.20;;;;;;;;;;5073790;28;20188;-74
2021/04/02 04:01:14;;;;;;;27.50;25.80;;;;;;;;;;5073469;28;20191;-74
2021/04/02 04:03:43;;;;;;;28.98;26.95;;;;;;;;;;5072276;28;20202;-74
2021/04/02 04:06:14;;;;;;;28.10;25.85;;;;;;;;;;5073315;28;20190;-74
2021/04/02 04:08:42;;;;;;;29.08;26.13;;;;;;;;;;5073472;28;20195;-74
2021/04/02 04:11:10;;;;;;;28.08;26.15;;;;;;;;;;5076093;28;20190;-73
2021/04/02 04:13:38;;;;;;;29.45;27.17;;;;;;;;;;5077834;28;20191;-74
2021/04/02 04:16:06;;;;;;;29.83;26.90;;;;;;;;;;5077242;28;20218;-74
2021/04/02 04:18:33;;;;;;;28.67;26.58;;;;;;;;;;5076097;28;20201;-74
2021/04/02 04:21:02;;;;;;;29.35;27.10;;;;;;;;;;5077796;28;20285;-74
2021/04/02 04:23:30;;;;;;;29.95;27.65;;;;;;;;;;5077307;28;20193;-74
2021/04/02 04:25:59;;;;;;;30.73;28.08;;;;;;;;;;5077675;28;20193;-74
2021/04/02 04:28:27;;;;;;;29.10;27.00;;;;;;;;;;5077405;28;20198;-74
2021/04/02 04:30:56;;;;;;;29.38;27.17;;;;;;;;;;5077125;28;20196;-74
2021/04/02 04:33:24;;;;;;;31.58;29.00;;;;;;;;;;5077347;28;20205;-74
2021/04/02 04:35:52;;;;;;;30.10;27.98;;;;;;;;;;5076880;28;20553;-74
2021/04/02 04:38:19;;;;;;;29.80;27.35;;;;;;;;;;5077195;28;20238;-74
2021/04/02 04:40:49;;;;;;;29.40;27.27;;;;;;;;;;5077264;28;20190;-74
2021/04/02 04:43:17;;;;;;;29.70;26.92;;;;;;;;;;5077207;28;20194;-74
2021/04/02 04:45:44;;;;;;;31.10;28.67;;;;;;;;;;5077161;28;20261;-74
2021/04/02 04:48:11;;;;;;;29.98;27.55;;;;;;;;;;5076853;28;20640;-74
2021/04/02 04:50:38;;;;;;;30.38;27.83;;;;;;;;;;5076815;28;20543;-74
2021/04/02 04:53:07;;;;;;;30.55;28.05;;;;;;;;;;5076813;28;20706;-74
2021/04/02 04:55:36;;;;;;;30.25;28.05;;;;;;;;;;5076556;28;20220;-74
2021/04/02 04:58:04;;;;;;;29.65;27.25;;;;;;;;;;5075331;28;20198;-74
2021/04/02 05:00:31;;;;;;;30.02;27.63;;;;;;;;;;5076722;28;20207;-73
2021/04/02 05:02:59;;;;;;;28.60;26.30;;;;;;;;;;5076742;28;20191;-74
2021/04/02 05:05:32;;;;;;;30.35;27.95;;;;;;;;;;5076356;28;20285;-74
2021/04/02 05:08:01;;;;;;;31.27;28.38;;;;;;;;;;5076480;28;20238;-74
2021/04/02 05:10:28;;;;;;;29.75;27.75;;;;;;;;;;5076769;28;20186;-74
2021/04/02 05:12:57;;;;;;;29.77;27.58;;;;;;;;;;5076678;28;20197;-73
2021/04/02 05:15:25;;;;;;;30.10;27.60;;;;;;;;;;5076413;28;20256;-74
2021/04/02 05:17:53;;;;;;;28.63;26.60;;;;;;;;;;5076330;28;20506;-74
2021/04/02 05:20:20;;;;;;;29.30;27.20;;;;;;;;;;5074976;28;20200;-74
2021/04/02 05:22:47;;;;;;;30.75;28.40;;;;;;;;;;5075745;28;20192;-74
2021/04/02 05:25:15;;;;;;;31.05;28.48;;;;;;;;;;5076419;28;20191;-74
2021/04/02 05:27:41;;;;;;;32.67;29.17;;;;;;;;;;5075856;28;20260;-74
2021/04/02 05:30:09;;;;;;;32.25;29.58;;;;;;;;;;5076871;28;20206;-74
2021/04/02 05:32:37;;;;;;;30.38;27.88;;;;;;;;;;5076313;28;20645;-74
2021/04/02 05:35:04;;;;;;;31.30;28.60;;;;;;;;;;5076148;28;20683;-74
2021/04/02 05:37:31;;;;;;;30.70;28.40;;;;;;;;;;5076040;28;20415;-74
2021/04/02 05:39:58;;;;;;;30.25;28.10;;;;;;;;;;5075617;28;20507;-74
2021/04/02 05:42:25;;;;;;;32.40;30.00;;;;;;;;;;5075706;28;20672;-73
2021/04/02 05:44:53;;;;;;;30.97;28.47;;;;;;;;;;5074897;28;20412;-74
2021/04/02 05:47:20;;;;;;;33.55;30.52;;;;;;;;;;5075667;28;20408;-74
2021/04/02 05:49:48;;;;;;;29.83;27.50;;;;;;;;;;5075958;28;20187;-74
2021/04/02 05:52:15;;;;;;;30.83;28.57;;;;;;;;;;5074472;28;20422;-74
2021/04/02 05:54:43;;;;;;;31.48;28.77;;;;;;;;;;5075362;28;20528;-74
2021/04/02 05:57:10;;;;;;;30.90;28.40;;;;;;;;;;5075367;28;20316;-73
2021/04/02 05:59:38;;;;;;;31.10;28.40;;;;;;;;;;5075734;28;20905;-73
2021/04/02 06:02:05;;;;;;;31.23;28.73;;;;;;;;;;5075683;28;20562;-74
2021/04/02 06:04:33;;;;;;;32.40;29.80;;;;;;;;;;5074400;28;20469;-74
2021/04/02 06:07:00;;;;;;;30.88;28.25;;;;;;;;;;5075319;28;20487;-74
2021/04/02 06:09:28;;;;;;;31.73;29.30;;;;;;;;;;5075319;28;20197;-74
2021/04/02 06:11:55;;;;;;;30.20;27.93;;;;;;;;;;5073701;28;20449;-74
2021/04/02 06:14:22;;;;;;;30.47;28.30;;;;;;;;;;5074048;28;20453;-73
2021/04/02 06:16:49;;;;;;;30.77;28.38;;;;;;;;;;5075054;28;20445;-74
2021/04/02 06:19:16;;;;;;;31.87;29.30;;;;;;;;;;5075397;28;20196;-73
2021/04/02 06:21:47;;;;;;;29.83;27.33;;;;;;;;;;5074940;28;20789;-73
2021/04/02 06:24:16;;;;;;;32.22;29.50;;;;;;;;;;5075230;28;20191;-74
2021/04/02 06:26:58;;;;;;;32.13;29.70;;;;;;;;;;5074749;28;20718;-74
2021/04/02 06:29:27;;;;;;;32.73;29.90;;;;;;;;;;5074788;28;20410;-74
2021/04/02 06:31:54;;;;;;;31.60;29.30;;;;;;;;;;5074756;28;20471;-72
2021/04/02 06:34:21;;;;;;;31.20;28.70;;;;;;;;;;5072744;28;20256;-73
2021/04/02 06:36:50;;;;;;;32.85;30.05;;;;;;;;;;5075476;28;20188;-73
2021/04/02 06:39:17;;;;;;;33.38;30.70;;;;;;;;;;5074581;28;20744;-73
2021/04/02 06:41:47;;;;;;;33.97;31.05;;;;;;;;;;5074894;28;20190;-74
2021/04/02 06:44:13;;;;;;;34.17;31.57;;;;;;;;;;5074510;28;20594;-73
2021/04/02 06:46:41;;;;;;;33.00;30.30;;;;;;;;;;5074321;28;20817;-73
2021/04/02 06:49:12;;;;;;;33.53;30.73;;;;;;;;;;5074427;28;20651;-74
2021/04/02 06:51:39;;;;;;;34.22;31.25;;;;;;;;;;5074158;28;20206;-74
2021/04/02 06:54:06;;;;;;;34.13;31.53;;;;;;;;;;5074157;28;20714;-73
2021/04/02 06:56:35;;;;;;;31.40;29.10;;;;;;;;;;5074064;28;20456;-74
2021/04/02 06:59:02;;;;;;;32.75;29.92;;;;;;;;;;5074570;28;20438;-73
2021/04/02 07:01:29;;;;;;;32.00;29.23;;;;;;;;;;5074478;28;20194;-73
2021/04/02 07:03:57;;;;;;;31.45;29.05;;;;;;;;;;5074183;28;20640;-74
2021/04/02 07:06:25;;;;;;;31.43;28.83;;;;;;;;;;5074397;28;20190;-74
2021/04/02 07:08:52;;;;;;;32.10;29.38;;;;;;;;;;5086720;28;20900;-73
2021/04/02 07:11:20;;;;;;;33.85;31.17;;;;;;;;;;5094562;28;20286;-73
2021/04/02 07:13:49;;;;;;;33.70;30.67;;;;;;;;;;5094283;28;20268;-73
2021/04/02 07:16:18;;;;;;;33.53;30.60;;;;;;;;;;5093018;28;20466;-73
2021/04/02 07:18:44;;;;;;;33.77;30.63;;;;;;;;;;5094460;28;20220;-72
2021/04/02 07:21:13;;;;;;;33.70;30.80;;;;;;;;;;5094021;28;20451;-73
2021/04/02 07:23:40;;;;;;;31.70;29.17;;;;;;;;;;5094941;28;20418;-73
2021/04/02 07:26:07;;;;;;;32.85;29.75;;;;;;;;;;5094343;28;20498;-75
2021/04/02 07:28:34;;;;;;;34.65;31.58;;;;;;;;;;5093296;28;20197;-75
2021/04/02 07:31:04;;;;;;;33.40;30.40;;;;;;;;;;5094173;28;20194;-75
2021/04/02 07:33:32;;;;;;;32.93;29.90;;;;;;;;;;5094232;28;20475;-75
2021/04/02 07:36:00;;;;;;;32.87;29.77;;;;;;;;;;5094444;28;20455;-75
2021/04/02 07:38:28;;;;;;;33.97;31.17;;;;;;;;;;5094096;28;20469;-75
2021/04/02 07:40:56;;;;;;;32.20;29.30;;;;;;;;;;5094049;28;20982;-74
2021/04/02 07:43:23;;;;;;;31.90;29.23;;;;;;;;;;5094310;28;20494;-75
2021/04/02 07:45:53;;;;;;;34.50;31.85;;;;;;;;;;5093948;28;20399;-75
2021/04/02 07:48:24;;;;;;;34.53;31.77;;;;;;;;;;5094339;28;20194;-75
2021/04/02 07:50:52;;;;;;;33.38;30.58;;;;;;;;;;5094257;28;20433;-75
2021/04/02 07:53:20;;;;;;;34.08;31.58;;;;;;;;;;5093865;28;20284;-75
2021/04/02 07:55:55;;;;;;;33.63;30.65;;;;;;;;;;5093616;28;20222;-74
2021/04/02 07:58:26;;;;;;;33.07;30.57;;;;;;;;;;5093842;28;20604;-74
2021/04/02 08:00:53;;;;;;;32.67;29.57;;;;;;;;;;5094057;28;20436;-75
2021/04/02 08:03:24;;;;;;;32.35;29.75;;;;;;;;;;5093619;28;20434;-74
2021/04/02 08:05:59;;;;;;;33.63;30.70;;;;;;;;;;5092599;28;20657;-75
2021/04/02 08:08:26;;;;;;;31.20;28.63;;;;;;;;;;5093711;28;20414;-75
2021/04/02 08:11:05;;;;;;;31.20;28.73;;;;;;;;;;5094053;28;20418;-74
2021/04/02 08:13:46;;;;;;;29.70;27.30;;;;;;;;;;5093995;28;20513;-75
2021/04/02 08:16:27;;;;;;;31.27;28.63;;;;;;;;;;5094048;28;20458;-75
2021/04/02 08:19:01;;;;;;;30.87;28.47;;;;;;;;;;5093343;28;20443;-74
2021/04/02 08:21:28;;;;;;;30.40;28.10;;;;;;;;;;5091479;28;20396;-76
2021/04/02 08:23:55;;;;;;;31.53;28.87;;;;;;;;;;5093834;28;20412;-74
2021/04/02 08:26:22;;;;;;;31.77;29.27;;;;;;;;;;5093359;28;20493;-74
2021/04/02 08:28:49;;;;;;;31.67;28.83;;;;;;;;;;5093685;28;20803;-74
2021/04/02 08:31:17;;;;;;;30.83;28.27;;;;;;;;;;5093386;28;20213;-74
2021/04/02 08:33:43;;;;;;;29.83;27.40;;;;;;;;;;5093318;28;20419;-74
2021/04/02 08:36:11;;;;;;;28.87;26.70;;;;;;;;;;5093502;28;20474;-74
2021/04/02 08:38:46;;;;;;;29.43;26.83;;;;;;;;;;5092062;28;20457;-74
2021/04/02 08:41:17;;;;;;;28.07;25.73;;;;;;;;;;5093521;28;20450;-74
2021/04/02 08:43:44;;;;;;;28.38;26.23;;;;;;;;;;5092286;28;20445;-74
2021/04/02 08:46:11;;;;;;;29.03;26.83;;;;;;;;;;5093170;28;20553;-74
2021/04/02 08:48:39;;;;;;;28.67;26.40;;;;;;;;;;5093479;28;20419;-74
2021/04/02 08:51:06;;;;;;;29.53;27.20;;;;;;;;;;5093231;28;20761;-74
2021/04/02 08:53:41;;;;;;;27.50;25.57;;;;;;;;;;5093066;28;20498;-74
2021/04/02 08:56:08;;;;;;;27.30;25.40;;;;;;;;;;5093249;28;20458;-77
2021/04/02 08:58:35;;;;;;;25.10;23.47;;;;;;;;;;5097212;28;20489;-74
2021/04/02 09:01:03;;;;;;;25.93;23.80;;;;;;;;;;5095242;28;20441;-73
2021/04/02 09:03:31;;;;;;;28.90;26.90;;;;;;;;;;5096857;28;20417;-73
2021/04/02 09:05:58;;;;;;;27.97;25.47;;;;;;;;;;5096643;28;20493;-73
2021/04/02 09:08:24;;;;;;;28.07;25.97;;;;;;;;;;5096880;28;20464;-73
2021/04/02 09:10:53;;;;;;;27.47;25.63;;;;;;;;;;5096905;28;20775;-74
2021/04/02 09:13:27;;;;;;;27.17;25.33;;;;;;;;;;5096815;28;20442;-74
2021/04/02 09:15:54;;;;;;;26.60;24.90;;;;;;;;;;5096733;28;20480;-74
2021/04/02 09:18:28;;;;;;;28.33;26.23;;;;;;;;;;5096811;28;20431;-74
2021/04/02 09:20:56;;;;;;;26.00;24.23;;;;;;;;;;5096337;28;20447;-74
2021/04/02 09:23:24;;;;;;;26.07;24.27;;;;;;;;;;5095144;28;20995;-74
2021/04/02 09:25:51;;;;;;;25.53;23.30;;;;;;;;;;5096201;28;20749;-74
2021/04/02 09:28:23;;;;;;;25.03;23.07;;;;;;;;;;5096526;28;20473;-74
2021/04/02 09:30:50;;;;;;;25.77;23.53;;;;;;;;;;5096423;28;20425;-74
2021/04/02 09:33:20;;;;;;;25.57;23.97;;;;;;;;;;5096048;28;20823;-74
2021/04/02 09:35:48;;;;;;;24.40;22.90;;;;;;;;;;5095995;28;20465;-74
2021/04/02 09:38:15;;;;;;;23.63;22.00;;;;;;;;;;5096187;28;20472;-75
2021/04/02 09:40:46;;;;;;;24.90;23.20;;;;;;;;;;5096258;28;20419;-74
2021/04/02 09:43:13;;;;;;;24.80;23.00;;;;;;;;;;5096404;28;20430;-74
2021/04/02 09:45:40;;;;;;;25.17;23.33;;;;;;;;;;5096195;28;20423;-74
2021/04/02 09:48:19;;;;;;;24.47;22.90;;;;;;;;;;5096116;28;20407;-74
2021/04/02 09:50:47;;;;;;;24.23;22.63;;;;;;;;;;5096182;28;20471;-74
2021/04/02 09:53:15;;;;;;;24.53;22.87;;;;;;;;;;5095639;28;20455;-74
2021/04/02 09:55:42;;;;;;;25.47;23.80;;;;;;;;;;5096096;28;20477;-74
2021/04/02 09:58:09;;;;;;;25.15;23.40;;;;;;;;;;5095914;28;20432;-73
2021/04/02 10:00:36;;;;;;;26.00;24.20;;;;;;;;;;5095401;28;20690;-74
2021/04/02 10:03:12;;;;;;;23.97;22.40;;;;;;;;;;5095911;28;20869;-74
2021/04/02 10:05:39;;;;;;;25.27;23.47;;;;;;;;;;5095463;28;20426;-74
2021/04/02 10:08:07;;;;;;;24.90;23.30;;;;;;;;;;5095544;28;20832;-74
2021/04/02 10:10:34;;;;;;;25.63;23.87;;;;;;;;;;5096175;28;20444;-74
2021/04/02 10:13:01;;;;;;;26.03;24.13;;;;;;;;;;5095436;28;20419;-74
2021/04/02 10:15:28;;;;;;;24.50;22.67;;;;;;;;;;5095261;28;20459;-74
2021/04/02 10:17:55;;;;;;;25.47;23.70;;;;;;;;;;5095589;28;20419;-74
2021/04/02 10:20:22;;;;;;;25.70;23.73;;;;;;;;;;5094509;28;20443;-74
2021/04/02 10:22:49;;;;;;;26.37;24.57;;;;;;;;;;5095424;28;20418;-74
2021/04/02 10:25:16;;;;;;;24.80;23.40;;;;;;;;;;5093904;28;20459;-74
2021/04/02 10:27:43;;;;;;;25.67;23.87;;;;;;;;;;5095396;28;20469;-74
2021/04/02 10:30:11;;;;;;;27.33;25.27;;;;;;;;;;5094993;28;20423;-74
2021/04/02 10:32:38;;;;;;;24.97;22.97;;;;;;;;;;5094659;28;20437;-74
2021/04/02 10:35:05;;;;;;;25.93;24.07;;;;;;;;;;5095244;28;20458;-73
2021/04/02 10:37:33;;;;;;;24.13;22.73;;;;;;;;;;5095211;28;20473;-74
2021/04/02 10:40:00;;;;;;;25.20;23.57;;;;;;;;;;5095199;28;20430;-74
2021/04/02 10:42:27;;;;;;;25.23;23.00;;;;;;;;;;5094854;28;20415;-71
2021/04/02 10:44:54;;;;;;;24.77;22.90;;;;;;;;;;5093868;28;20447;-71
2021/04/02 10:47:21;;;;;;;24.93;23.03;;;;;;;;;;5094688;28;20914;-71
2021/04/02 10:49:47;;;;;;;26.20;24.07;;;;;;;;;;5095061;28;20426;-71
2021/04/02 10:52:14;;;;;;;25.67;23.87;;;;;;;;;;5094908;28;20445;-71
2021/04/02 10:54:42;;;;;;;28.07;26.00;;;;;;;;;;5094307;28;20472;-71
2021/04/02 10:57:09;;;;;;;26.10;24.40;;;;;;;;;;5094784;28;20831;-71
2021/04/02 10:59:36;;;;;;;25.23;23.67;;;;;;;;;;5094259;28;20817;-71
2021/04/02 11:02:04;;;;;;;24.80;23.20;;;;;;;;;;5093607;28;20460;-73
2021/04/02 11:04:30;;;;;;;25.97;23.90;;;;;;;;;;5092620;28;20513;-74
2021/04/02 11:06:57;;;;;;;25.90;24.10;;;;;;;;;;5094309;28;20915;-73
2021/04/02 11:09:24;;;;;;;26.50;24.43;;;;;;;;;;5094215;28;20437;-73
2021/04/02 11:11:52;;;;;;;25.43;23.70;;;;;;;;;;5094226;28;20494;-71
2021/04/02 11:14:19;;;;;;;25.00;23.43;;;;;;;;;;5094128;28;20881;-71
2021/04/02 11:16:46;;;;;;;26.70;24.00;;;;;;;;;;5094324;28;20492;-72
2021/04/02 11:19:12;;;;;;;25.47;23.90;;;;;;;;;;5093491;28;20441;-72
2021/04/02 11:21:39;;;;;;;25.00;23.20;;;;;;;;;;5094329;28;20436;-75
2021/04/02 11:24:07;;;;;;;24.83;23.00;;;;;;;;;;5094393;28;20468;-73
2021/04/02 11:26:34;;;;;;;24.53;22.73;;;;;;;;;;5093816;28;20440;-74
2021/04/02 11:29:02;;;;;;;25.83;23.93;;;;;;;;;;5092745;28;20449;-72
2021/04/02 11:31:28;;;;;;;25.67;23.67;;;;;;;;;;5094269;28;20440;-74
2021/04/02 11:33:55;;;;;;;25.20;23.40;;;;;;;;;;5094253;28;20426;-74
2021/04/02 11:36:22;;;;;;;27.87;25.77;;;;;;;;;;5092491;28;20483;-71
2021/04/02 11:38:49;;;;;;;27.63;25.30;;;;;;;;;;5093709;28;20992;-71
2021/04/02 11:41:16;;;;;;;26.47;24.63;;;;;;;;;;5094130;28;20469;-74
2021/04/02 11:43:43;;;;;;;24.53;23.03;;;;;;;;;;5094094;28;20657;-74
2021/04/02 11:46:11;;;;;;;24.27;22.57;;;;;;;;;;5093830;28;20799;-74
2021/04/02 11:48:38;;;;;;;25.17;23.40;;;;;;;;;;5093810;28;20459;-75
2021/04/02 11:51:05;;;;;;;23.63;22.13;;;;;;;;;;5093770;28;20399;-74
2021/04/02 11:53:32;;;;;;;24.40;22.70;;;;;;;;;;5093145;28;20447;-74
2021/04/02 11:55:59;;;;;;;25.57;23.53;;;;;;;;;;5093571;28;20499;-74
2021/04/02 11:58:26;;;;;;;24.97;23.17;;;;;;;;;;5093421;28;20435;-73
2021/04/02 12:00:53;;;;;;;24.70;23.00;;;;;;;;;;5093900;28;20411;-71
2021/04/02 12:03:21;;;;;;;24.30;22.90;;;;;;;;;;5093849;28;20443;-71
2021/04/02 12:05:48;;;;;;;26.27;24.37;;;;;;;;;;5093451;28;20441;-71
2021/04/02 12:08:16;;;;;;;23.33;22.00;;;;;;;;;;5092575;28;20843;-74
2021/04/02 12:10:44;;;;;;;24.10;22.37;;;;;;;;;;5093792;28;20418;-76
2021/04/02 12:13:11;;;;;;;23.93;22.43;;;;;;;;;;5093465;28;20415;-75
2021/04/02 12:15:38;;;;;;;24.50;22.47;;;;;;;;;;5092333;28;20833;-74
2021/04/02 12:18:05;;;;;;;23.43;21.93;;;;;;;;;;5093391;28;20414;-74
2021/04/02 12:20:33;;;;;;;25.40;23.60;;;;;;;;;;5093524;28;20455;-75
2021/04/02 12:23:00;;;;;;;24.27;22.30;;;;;;;;;;5093448;28;20444;-71
2021/04/02 12:25:28;;;;;;;24.27;22.57;;;;;;;;;;5093488;28;20864;-71
2021/04/02 12:27:55;;;;;;;23.80;22.00;;;;;;;;;;5093573;28;20497;-71
2021/04/02 12:30:22;;;;;;;23.70;22.10;;;;;;;;;;5094311;28;20447;-71
2021/04/02 12:32:49;;;;;;;23.83;22.13;;;;;;;;;;5097388;28;20433;-70
2021/04/02 12:35:16;;;;;;;24.37;22.77;;;;;;;;;;5097193;28;20899;-71
2021/04/02 12:37:44;;;;;;;25.97;23.97;;;;;;;;;;5097203;28;20475;-71
2021/04/02 12:40:13;;;;;;;24.60;22.90;;;;;;;;;;5096241;28;20569;-74
2021/04/02 12:42:40;;;;;;;24.47;22.83;;;;;;;;;;5097630;28;20423;-74
2021/04/02 12:45:08;;;;;;;25.10;23.20;;;;;;;;;;5095986;28;20892;-74
2021/04/02 12:47:35;;;;;;;24.17;22.57;;;;;;;;;;5097156;28;20445;-74
2021/04/02 12:50:02;;;;;;;25.07;23.10;;;;;;;;;;5097143;28;20437;-74
2021/04/02 12:52:29;;;;;;;24.43;22.50;;;;;;;;;;5097319;28;20452;-74
2021/04/02 12:54:57;;;;;;;25.03;23.13;;;;;;;;;;5096679;28;20505;-75
2021/04/02 12:57:24;;;;;;;25.57;23.30;;;;;;;;;;5097051;28;20459;-75
2021/04/02 12:59:51;;;;;;;24.03;22.53;;;;;;;;;;5096935;28;20440;-75
2021/04/02 13:02:18;;;;;;;23.40;21.73;;;;;;;;;;5097721;28;20463;-75
2021/04/02 13:04:44;;;;;;;22.47;21.07;;;;;;;;;;5097100;28;20419;-75
2021/04/02 13:07:11;;;;;;;23.90;21.97;;;;;;;;;;5097582;28;20498;-75
2021/04/02 13:09:39;;;;;;;24.23;22.20;;;;;;;;;;5097011;28;20432;-75
2021/04/02 13:12:08;;;;;;;26.30;24.33;;;;;;;;;;5096842;28;20815;-75
2021/04/02 13:14:35;;;;;;;24.07;22.47;;;;;;;;;;5096645;28;20413;-71
2021/04/02 13:17:06;;;;;;;25.33;23.17;;;;;;;;;;5096500;28;20466;-71
2021/04/02 13:19:33;;;;;;;23.83;22.27;;;;;;;;;;5099139;28;20414;-75
2021/04/02 13:21:59;;;;;;;24.37;22.77;;;;;;;;;;5100106;28;20465;-75
2021/04/02 13:24:26;;;;;;;25.00;23.30;;;;;;;;;;5096649;28;20456;-77
2021/04/02 13:26:53;;;;;;;25.30;23.30;;;;;;;;;;5098137;28;20419;-77
2021/04/02 13:29:21;;;;;;;26.00;24.40;;;;;;;;;;5097244;28;20425;-77
2021/04/02 13:31:48;;;;;;;24.67;23.20;;;;;;;;;;5097106;28;20456;-71
2021/04/02 13:34:15;;;;;;;27.53;25.47;;;;;;;;;;5096388;28;20417;-71
2021/04/02 13:36:42;;;;;;;25.57;23.80;;;;;;;;;;5096141;28;20552;-71
2021/04/02 13:39:09;;;;;;;26.37;24.47;;;;;;;;;;5096434;28;20460;-71
2021/04/02 13:41:36;;;;;;;26.50;24.33;;;;;;;;;;5096252;28;20766;-70
2021/04/02 13:44:03;;;;;;;25.00;23.20;;;;;;;;;;5095919;28;20970;-71
2021/04/02 13:46:31;;;;;;;25.80;23.90;;;;;;;;;;5096545;28;20407;-71
2021/04/02 13:48:58;;;;;;;25.90;23.93;;;;;;;;;;5096297;28;20427;-71
2021/04/02 13:51:25;;;;;;;26.20;24.23;;;;;;;;;;5096910;28;20514;-72
2021/04/02 13:53:53;;;;;;;26.17;24.27;;;;;;;;;;5096275;28;20601;-74
2021/04/02 13:56:19;;;;;;;28.20;25.93;;;;;;;;;;5094596;28;20497;-75
2021/04/02 13:58:46;;;;;;;27.53;25.40;;;;;;;;;;5095252;28;20448;-71
2021/04/02 14:01:13;;;;;;;25.93;23.97;;;;;;;;;;5096140;28;20476;-74
2021/04/02 14:03:42;;;;;;;27.00;25.03;;;;;;;;;;5096416;28;20449;-74
2021/04/02 14:06:08;;;;;;;26.57;24.73;;;;;;;;;;5095896;28;20774;-74
2021/04/02 14:08:35;;;;;;;27.27;25.20;;;;;;;;;;5097147;28;20885;-74
2021/04/02 14:11:02;;;;;;;26.97;25.07;;;;;;;;;;5095837;28;20408;-74
2021/04/02 14:13:29;;;;;;;25.67;23.87;;;;;;;;;;5095663;28;20412;-78
2021/04/02 14:15:56;;;;;;;26.63;24.67;;;;;;;;;;5094480;28;20550;-79
2021/04/02 14:18:23;;;;;;;26.07;24.03;;;;;;;;;;5094931;28;20410;-78
2021/04/02 14:20:51;;;;;;;24.87;22.80;;;;;;;;;;5096894;28;20445;-76